Isle aux Morts, Canada
Current Conditions -  °F | °C
As of 3:00 AM on Friday 19 Dec 2014 (Local Time) from CWZB Reporting Station
Moderate Rain Moderate Rain  
Wind Chill:   Ceiling: 1500
Heat Index:   Visibility: 4mi
Dew Point:   Wind: 6mph
Humidity: 97%   Direction: 10°N
Pressure: 29.42"   Gusts: NA
Location:  47.59°N, 58.97°W
Report Text: CWZB 190600Z AUTO 01005KT 4SM RA BKN000 OVC015 OVC029 04/03 A2942 RMK SLP964 T00390034 10047 20039 P0024 60028 70075 WSI/SWOB
Loading
Personal Weather Stations






























Interactive Weather Map New forecast layout! Learn more

10-Day Weather Forecast

Advertisements
Track Severe Weather on mobile